Hopkinton, MA

7:02 AM EST on March 05, 2015 (GMT -0500)
Norwood Memorial | Change Station
CLOSE
Current Station
Airport
Location: Norwood,
Elevation: 49 ft
Nearby Weather Stations

Elev 49 ft 42.19 °N, 71.17 °W | Updated 9 minutes ago

Snow
Snow
33 °F
Feels Like 27 °F
N
7
Wind Variable Wind from NW

Today
High -- | Low -- °F
--% Chance of Precip.
Yesterday
High -- | Low -- °F
Precip. -- in
6:15 AM 5:40 PM
Full, 100% visible
Pressure 29.97 in
Visibility 5.0 miles
Clouds Overcast 2800 ft
Windchill 27 °F
Dew Point 23 °F
Humidity 66%
Rainfall 0.00 in
Snow Depth Not available.
UV 0 out of 12
Pollen .90 out of 12
Air Quality Not available.
Flu Activity Not available.
METAR KOWD 051153Z 32006KT 5SM -SN OVC028 01/M05 A2997 RMK AO2 SNB05 SLP149 P0000 60000 T00061050 10028 20006 51030

More Conditions Fewer Conditions

Pressure 29.97 in
Visibility 5.0 miles
Clouds Overcast 2800 ft
Windchill 27 °F
Dew Point 23 °F
Humidity 66%
Rainfall 0.00 in
Snow Depth Not available.
UV 0 out of 12
Pollen .90 out of 12
Air Quality Not available.
Flu Activity Not available.
METAR KOWD 051153Z 32006KT 5SM -SN OVC028 01/M05 A2997 RMK AO2 SNB05 SLP149 P0000 60000 T00061050 10028 20006 51030

More Conditions Fewer Conditions

10-Day Weather Forecast

Almanac

Astronomy

Mar. 05, 2015 Rise Set
Actual Time
Civil Twilight
Nautical Twilight
Astronomical Twilight
Moon
Length of Visible Light
Length of Day
Tomorrow will be .
, % of the Moon is Illuminated

Today's Extremes

State Highs State Lows

Community

WunderPhotos

Upload Photos

1,802,716 photos uploaded!

WunderBlogs® & News

Nearby

Air Quality

  Air Quality AQ Index Pollutant
Not available.

Snow Depth

Station Depth Elevation

Earthquake Activity

City Distance Mag. Time & Date
Minimum magnitude displayed is 2.5.

Coastal Water Temperatures

Place Temperature

Nearby Weather Stations